Time;durP1;ratioP1;P1;durP2;ratioP2;P2;SDS_P1;SDS_P2;PMS_P1;PMS_P2;Temp;Humidity;BMP_temperature;BMP_pressure;BME280_temperature;BME280_humidity;BME280_pressure;Samples;Min_cycle;Max_cycle;Signal;HPM_P1;HPM_P2
2022/07/22 00:00:56;;;;;;;;;;;;;;;30.40;25.52;100412.00;5416427;32;34390;-77
2022/07/22 00:03:58;;;;;;;;;;;;;;;30.22;25.70;100411.59;5397331;32;34408;-79
2022/07/22 00:07:00;;;;;;;;;;;;;;;30.56;25.43;100400.97;5407997;32;34585;-78
2022/07/22 00:10:02;;;;;;;;;;;;;;;30.49;25.37;100416.31;5421237;32;34875;-74
2022/07/22 00:13:04;;;;;;;;;;;;;;;30.72;24.97;100421.62;5418947;32;34262;-78
2022/07/22 00:16:06;;;;;;;;;;;;;;;29.31;27.14;100416.09;5421691;32;44649;-75
2022/07/22 00:19:08;;;;;;;;;;;;;;;29.68;26.80;100410.72;5430173;32;34263;-79
2022/07/22 00:22:10;;;;;;;;;;;;;;;30.17;26.17;100406.72;5437749;32;34462;-80
2022/07/22 00:25:13;;;;;;;;;;;;;;;29.95;26.36;100419.28;5402880;32;34236;-78
2022/07/22 00:28:15;;;;;;;;;;;;;;;29.51;27.38;100416.44;5408337;32;34201;-73
2022/07/22 00:31:17;;;;;;;;;;;;;;;29.18;27.70;100416.72;5417310;32;34290;-73
2022/07/22 00:34:19;;;;;;;;;;;;;;;29.03;28.00;100394.97;5423969;32;35624;-74
2022/07/22 00:37:21;;;;;;;;;;;;;;;29.14;28.01;100418.91;5410280;32;34681;-78
2022/07/22 00:40:23;;;;;;;;;;;;;;;29.30;27.84;100417.09;5417921;32;34143;-78
2022/07/22 00:43:25;;;;;;;;;;;;;;;29.77;27.19;100413.37;5443693;32;35272;-78
2022/07/22 00:46:27;;;;;;;;;;;;;;;29.20;28.04;100411.09;5402632;32;35486;-78
2022/07/22 00:49:29;;;;;;;;;;;;;;;29.12;28.27;100414.72;5418625;32;34261;-74
2022/07/22 00:52:32;;;;;;;;;;;;;;;29.27;28.17;100412.06;5404079;32;34098;-77
2022/07/22 00:55:34;;;;;;;;;;;;;;;28.94;28.62;100411.44;5428688;32;35081;-78
2022/07/22 00:58:36;;;;;;;;;;;;;;;29.12;28.44;100415.56;5425883;32;43161;-79
2022/07/22 01:01:37;;;;;;;;;;;;;;;28.77;29.22;100416.06;5409366;32;35526;-77
2022/07/22 01:04:40;;;;;;;;;;;;;;;28.60;29.75;100434.25;5440061;32;34450;-78
2022/07/22 01:07:42;;;;;;;;;;;;;;;29.42;28.99;100418.38;5413049;32;35416;-78
2022/07/22 01:10:44;;;;;;;;;;;;;;;29.88;28.49;100426.44;5431589;32;35752;-73
2022/07/22 01:13:46;;;;;;;;;;;;;;;29.68;29.22;100434.25;5416961;32;34292;-78
2022/07/22 01:16:48;;;;;;;;;;;;;;;28.56;31.44;100430.19;5417355;32;34353;-78
2022/07/22 01:19:51;;;;;;;;;;;;;;;28.28;32.23;100437.88;5412579;32;36233;-72
2022/07/22 01:22:52;;;;;;;;;;;;;;;28.90;31.15;100434.41;5411674;32;35575;-74
2022/07/22 01:25:54;;;;;;;;;;;;;;;28.56;31.75;100441.84;5435469;32;34379;-73
2022/07/22 01:28:56;;;;;;;;;;;;;;;28.89;31.41;100425.47;5433134;32;35507;-78
2022/07/22 01:31:59;;;;;;;;;;;;;;;28.63;31.15;100439.28;5437619;32;34350;-74
2022/07/22 01:35:01;;;;;;;;;;;;;;;29.07;29.66;100433.34;5429406;32;36346;-78
2022/07/22 01:38:03;;;;;;;;;;;;;;;28.80;29.49;100424.69;5413272;32;35480;-73
2022/07/22 01:41:05;;;;;;;;;;;;;;;28.06;31.15;100432.16;5418357;32;34689;-73
2022/07/22 01:44:07;;;;;;;;;;;;;;;28.33;31.01;100428.25;5431558;32;44437;-75
2022/07/22 01:47:09;;;;;;;;;;;;;;;28.25;31.95;100425.53;5440931;32;34718;-78
2022/07/22 01:50:11;;;;;;;;;;;;;;;29.01;30.06;100425.94;5421880;32;36147;-78
2022/07/22 01:53:13;;;;;;;;;;;;;;;28.31;31.32;100430.28;5431847;32;35481;-79
2022/07/22 01:56:16;;;;;;;;;;;;;;;28.16;31.42;100433.84;5410260;32;34086;-73
2022/07/22 01:59:18;;;;;;;;;;;;;;;28.17;31.18;100416.63;5407102;32;35470;-73
2022/07/22 02:02:19;;;;;;;;;;;;;;;27.90;32.05;100432.22;5432502;32;34579;-79
2022/07/22 02:05:21;;;;;;;;;;;;;;;27.96;31.84;100438.78;5409991;32;34702;-74
2022/07/22 02:08:23;;;;;;;;;;;;;;;28.03;32.06;100434.41;5448524;32;33542;-73
2022/07/22 02:11:25;;;;;;;;;;;;;;;28.06;31.88;100429.47;5402123;32;34388;-77
2022/07/22 02:14:27;;;;;;;;;;;;;;;27.86;32.38;100430.88;5431286;32;34359;-79
2022/07/22 02:17:29;;;;;;;;;;;;;;;27.62;32.94;100425.44;5426886;32;36043;-76
2022/07/22 02:20:31;;;;;;;;;;;;;;;28.60;29.70;100420.72;5431587;32;35955;-72
2022/07/22 02:23:33;;;;;;;;;;;;;;;28.20;32.46;100432.47;5420342;32;35513;-78
2022/07/22 02:26:35;;;;;;;;;;;;;;;28.72;31.76;100438.22;5418770;32;34676;-78
2022/07/22 02:29:37;;;;;;;;;;;;;;;28.23;31.45;100432.16;5444862;32;46415;-73
2022/07/22 02:32:39;;;;;;;;;;;;;;;28.19;32.16;100455.13;5421359;32;34124;-73
2022/07/22 02:35:41;;;;;;;;;;;;;;;28.17;31.92;100465.25;5430998;32;34261;-73
2022/07/22 02:38:44;;;;;;;;;;;;;;;27.34;34.21;100460.87;5412249;32;35962;-78
2022/07/22 02:41:46;;;;;;;;;;;;;;;26.68;35.61;100467.91;5425449;32;34382;-74
2022/07/22 02:44:48;;;;;;;;;;;;;;;26.92;35.49;100456.38;5425957;32;34724;-77
2022/07/22 02:47:50;;;;;;;;;;;;;;;27.44;34.06;100458.03;5426402;32;35357;-73
2022/07/22 02:50:52;;;;;;;;;;;;;;;27.72;33.76;100466.66;5435637;32;34327;-77
2022/07/22 02:53:54;;;;;;;;;;;;;;;27.45;34.47;100462.41;5420101;32;34334;-78
2022/07/22 02:56:56;;;;;;;;;;;;;;;26.84;35.42;100466.25;5414631;32;34224;-72
2022/07/22 02:59:58;;;;;;;;;;;;;;;26.91;35.38;100454.66;5400319;32;36098;-72
2022/07/22 03:03:00;;;;;;;;;;;;;;;26.83;35.35;100470.81;5427794;32;34283;-72
2022/07/22 03:06:02;;;;;;;;;;;;;;;27.30;34.82;100462.19;5422153;32;34307;-72
2022/07/22 03:09:04;;;;;;;;;;;;;;;27.76;33.99;100459.91;5432408;32;35425;-78
2022/07/22 03:12:06;;;;;;;;;;;;;;;27.99;33.34;100465.44;5439546;32;44496;-78
2022/07/22 03:15:08;;;;;;;;;;;;;;;27.02;34.93;100463.47;5428742;32;34256;-78
2022/07/22 03:18:10;;;;;;;;;;;;;;;26.41;36.13;100465.41;5412746;32;37743;-73
2022/07/22 03:21:12;;;;;;;;;;;;;;;26.66;35.84;100463.66;5410339;32;34461;-72
2022/07/22 03:24:14;;;;;;;;;;;;;;;27.33;35.28;100471.84;5422708;32;34554;-74
2022/07/22 03:27:16;;;;;;;;;;;;;;;26.90;35.56;100466.47;5438835;32;34175;-74
2022/07/22 03:30:17;;;;;;;;;;;;;;;27.29;35.13;100468.59;5425898;32;34201;-73
2022/07/22 03:33:19;;;;;;;;;;;;;;;26.44;36.71;100492.88;5427647;32;34256;-73
2022/07/22 03:36:21;;;;;;;;;;;;;;;26.68;36.67;100485.94;5398563;32;34180;-77
2022/07/22 03:39:23;;;;;;;;;;;;;;;26.45;37.16;100488.31;5409230;32;35547;-73
2022/07/22 03:42:25;;;;;;;;;;;;;;;26.78;36.26;100492.03;5427556;32;34430;-75
2022/07/22 03:45:27;;;;;;;;;;;;;;;26.63;36.10;100491.78;5415067;32;35505;-78
2022/07/22 03:48:29;;;;;;;;;;;;;;;26.86;34.79;100486.69;5415552;32;34820;-74
2022/07/22 03:51:31;;;;;;;;;;;;;;;26.52;35.92;100497.47;5403089;32;34216;-74
2022/07/22 03:54:35;;;;;;;;;;;;;;;27.24;34.52;100479.91;5428425;32;43778;-78
2022/07/22 03:57:37;;;;;;;;;;;;;;;27.04;35.27;100474.91;5401517;32;34325;-74
2022/07/22 04:00:39;;;;;;;;;;;;;;;27.27;34.88;100482.28;5408866;32;34479;-72
2022/07/22 04:03:41;;;;;;;;;;;;;;;27.88;33.46;100484.69;5426106;32;34362;-74
2022/07/22 04:06:45;;;;;;;;;;;;;;;27.84;33.07;100486.91;5408562;32;37073;-80
2022/07/22 04:09:46;;;;;;;;;;;;;;;27.94;32.76;100482.16;5416184;32;34834;-80
2022/07/22 04:12:48;;;;;;;;;;;;;;;27.15;33.87;100475.50;5411965;32;34293;-72
2022/07/22 04:15:50;;;;;;;;;;;;;;;27.07;34.25;100470.09;5428318;32;34496;-76
2022/07/22 04:18:52;;;;;;;;;;;;;;;27.58;33.40;100478.94;5414189;32;35602;-77
2022/07/22 04:21:55;;;;;;;;;;;;;;;27.33;34.00;100478.06;5422772;32;34262;-76
2022/07/22 04:24:57;;;;;;;;;;;;;;;27.81;33.34;100481.84;5425343;32;34135;-77
2022/07/22 04:27:59;;;;;;;;;;;;;;;27.48;34.43;100479.09;5401652;32;34270;-73
2022/07/22 04:31:01;;;;;;;;;;;;;;;28.50;33.25;100483.09;5430846;32;35164;-74
2022/07/22 04:34:04;;;;;;;;;;;;;;;28.66;32.82;100476.81;5408713;32;35521;-78
2022/07/22 04:37:05;;;;;;;;;;;;;;;28.81;32.37;100460.69;5410824;32;43873;-77
2022/07/22 04:40:08;;;;;;;;;;;;;;;28.89;32.22;100463.34;5401491;32;35614;-78
2022/07/22 04:43:10;;;;;;;;;;;;;;;29.71;31.14;100457.44;5434391;32;34242;-78
2022/07/22 04:46:12;;;;;;;;;;;;;;;29.41;31.55;100466.25;5398639;32;34252;-77
2022/07/22 04:49:14;;;;;;;;;;;;;;;29.68;31.02;100464.03;5401926;32;33615;-74
2022/07/22 04:52:16;;;;;;;;;;;;;;;30.73;29.36;100461.31;5420666;32;35595;-79
2022/07/22 04:55:19;;;;;;;;;;;;;;;31.69;28.05;100464.69;5414100;32;33817;-78
2022/07/22 04:58:21;;;;;;;;;;;;;;;30.89;29.74;100473.81;5422090;32;34708;-75
2022/07/22 05:01:23;;;;;;;;;;;;;;;31.66;28.53;100463.19;5410878;32;34700;-74
2022/07/22 05:04:26;;;;;;;;;;;;;;;31.15;29.28;100479.56;5413560;32;35240;-79
2022/07/22 05:07:28;;;;;;;;;;;;;;;31.42;28.08;100467.13;5401005;32;34334;-78
2022/07/22 05:10:30;;;;;;;;;;;;;;;30.94;28.42;100480.38;5414089;32;34325;-72
2022/07/22 05:13:32;;;;;;;;;;;;;;;31.24;27.38;100459.44;5426946;32;34470;-77
2022/07/22 05:16:36;;;;;;;;;;;;;;;31.76;26.50;100468.31;5416169;32;34812;-69
2022/07/22 05:19:39;;;;;;;;;;;;;;;33.00;24.77;100471.22;5431038;32;44635;-69
2022/07/22 05:22:41;;;;;;;;;;;;;;;31.58;26.44;100471.47;5399253;32;34338;-68
2022/07/22 05:25:43;;;;;;;;;;;;;;;32.67;22.46;100471.91;5429523;32;35604;-78
2022/07/22 05:28:44;;;;;;;;;;;;;;;31.32;23.46;100479.38;5417588;32;35050;-81
2022/07/22 05:31:46;;;;;;;;;;;;;;;32.00;22.23;100470.59;5426029;32;34316;-72
2022/07/22 05:34:49;;;;;;;;;;;;;;;33.01;21.07;100473.72;5443237;32;35997;-74
2022/07/22 05:37:51;;;;;;;;;;;;;;;32.87;21.46;100474.72;5410731;32;35359;-72
2022/07/22 05:40:53;;;;;;;;;;;;;;;33.75;19.96;100474.72;5426246;32;34259;-71
2022/07/22 05:43:55;;;;;;;;;;;;;;;33.79;20.27;100474.09;5417872;32;35448;-69
2022/07/22 05:46:57;;;;;;;;;;;;;;;34.26;19.43;100477.66;5437459;32;34331;-69
2022/07/22 05:49:59;;;;;;;;;;;;;;;34.66;19.46;100483.91;5414511;32;36377;-68
2022/07/22 05:53:01;;;;;;;;;;;;;;;35.33;18.92;100481.69;5395721;32;36478;-68
2022/07/22 05:56:02;;;;;;;;;;;;;;;35.35;17.67;100487.78;5427266;32;34749;-68
2022/07/22 05:59:07;;;;;;;;;;;;;;;36.95;15.50;100471.59;5399707;32;44911;-65
2022/07/22 06:02:09;;;;;;;;;;;;;;;35.88;16.30;100481.97;5429525;32;34325;-68
2022/07/22 06:05:11;;;;;;;;;;;;;;;35.61;16.28;100480.50;5414776;32;35605;-66
2022/07/22 06:08:34;;;;;;;;;;;;;;;33.53;18.53;100491.28;5424042;32;35720;-68
2022/07/22 06:11:36;;;;;;;;;;;;;;;34.77;16.96;100490.56;5429535;32;44411;-66
2022/07/22 06:14:38;;;;;;;;;;;;;;;34.11;17.25;100485.25;5420642;32;35462;-68
2022/07/22 06:17:40;;;;;;;;;;;;;;;33.84;17.39;100495.28;5433006;32;34357;-71
2022/07/22 06:20:42;;;;;;;;;;;;;;;35.01;16.26;100500.78;5419331;32;34078;-72
2022/07/22 06:23:44;;;;;;;;;;;;;;;33.85;17.24;100500.53;5428534;32;35590;-73
2022/07/22 06:26:46;;;;;;;;;;;;;;;32.52;18.51;100499.22;5402759;32;34115;-73
2022/07/22 06:29:48;;;;;;;;;;;;;;;33.98;16.70;100491.53;5416836;32;34415;-74
2022/07/22 06:32:53;;;;;;;;;;;;;;;33.55;17.37;100491.06;5427434;32;35498;-67
2022/07/22 06:35:57;;;;;;;;;;;;;;;33.18;17.94;100490.56;5419723;32;36659;-70
2022/07/22 06:38:59;;;;;;;;;;;;;;;34.60;16.42;100497.56;5429479;32;35399;-67
2022/07/22 06:42:02;;;;;;;;;;;;;;;34.05;16.89;100499.72;5417319;32;35217;-71
2022/07/22 06:45:04;;;;;;;;;;;;;;;34.55;16.87;100495.47;5428387;32;35818;-69
2022/07/22 06:48:11;;;;;;;;;;;;;;;34.64;16.41;100490.59;5423351;32;44754;-88
2022/07/22 06:51:12;;;;;;;;;;;;;;;35.29;16.24;100491.37;5426895;32;34262;-70
2022/07/22 06:54:14;;;;;;;;;;;;;;;36.30;14.80;100484.97;5437589;32;33534;-68
2022/07/22 06:57:16;;;;;;;;;;;;;;;36.85;14.30;100483.09;5420287;32;34463;-73
2022/07/22 07:00:19;;;;;;;;;;;;;;;35.17;16.61;100488.53;5416655;32;34717;-73
2022/07/22 07:03:22;;;;;;;;;;;;;;;36.01;15.58;100484.63;5429099;32;34938;-68
2022/07/22 07:06:35;;;;;;;;;;;;;;;35.07;16.40;100487.31;5428291;32;44827;-66
2022/07/22 07:09:37;;;;;;;;;;;;;;;36.84;14.93;100475.94;5409393;32;36205;-71
2022/07/22 07:12:39;;;;;;;;;;;;;;;35.43;15.93;100486.72;5399279;32;35500;-68
2022/07/22 07:15:44;;;;;;;;;;;;;;;37.09;14.23;100475.84;5407020;32;34156;-68
2022/07/22 07:18:46;;;;;;;;;;;;;;;37.01;14.14;100483.56;5399463;32;36115;-66
2022/07/22 07:21:48;;;;;;;;;;;;;;;36.10;15.34;100478.84;5410865;32;37378;-69
2022/07/22 07:24:51;;;;;;;;;;;;;;;39.04;12.37;100479.44;5393839;32;35536;-64
2022/07/22 07:27:53;;;;;;;;;;;;;;;38.57;12.62;100476.78;5400938;32;845901;-66
2022/07/22 07:30:56;;;;;;;;;;;;;;;35.90;15.02;100479.84;5413481;32;34578;-72
2022/07/22 07:33:58;;;;;;;;;;;;;;;38.08;12.90;100469.91;5426224;32;35545;-68
2022/07/22 07:37:00;;;;;;;;;;;;;;;37.91;13.19;100475.25;5439502;32;35289;-70
2022/07/22 07:40:03;;;;;;;;;;;;;;;39.49;11.74;100471.22;5416355;32;34204;-72
2022/07/22 07:43:05;;;;;;;;;;;;;;;36.77;14.13;100471.59;5432739;32;34456;-76
2022/07/22 07:46:07;;;;;;;;;;;;;;;37.20;13.67;100463.25;5408490;32;45040;-68
2022/07/22 07:49:09;;;;;;;;;;;;;;;37.34;13.48;100469.41;5422360;32;34298;-69
2022/07/22 07:52:12;;;;;;;;;;;;;;;38.08;12.89;100470.75;5428774;32;34389;-74
2022/07/22 07:55:14;;;;;;;;;;;;;;;40.23;11.58;100470.25;5425046;32;34372;-72
2022/07/22 07:58:16;;;;;;;;;;;;;;;41.75;10.41;100465.69;5421951;32;34189;-71
2022/07/22 08:01:18;;;;;;;;;;;;;;;41.54;9.98;100461.06;5394816;32;34134;-70
2022/07/22 08:04:21;;;;;;;;;;;;;;;41.29;10.35;100468.00;5421314;32;34752;-67
2022/07/22 08:07:36;;;;;;;;;;;;;;;40.87;10.73;100460.34;5408460;32;32928;-78
2022/07/22 08:10:38;;;;;;;;;;;;;;;41.57;10.00;100464.13;5401122;32;34470;-69
2022/07/22 08:13:59;;;;;;;;;;;;;;;38.88;11.87;100459.06;5421464;32;35421;-77
2022/07/22 08:17:01;;;;;;;;;;;;;;;39.50;11.57;100464.66;5421917;32;34428;-82
2022/07/22 08:20:06;;;;;;;;;;;;;;;41.63;10.11;100452.06;5430074;32;44445;-77
2022/07/22 08:23:08;;;;;;;;;;;;;;;40.59;10.83;100453.16;5428396;32;34451;-72
2022/07/22 08:26:10;;;;;;;;;;;;;;;38.33;12.42;100459.53;5430453;32;35136;-73
2022/07/22 08:29:13;;;;;;;;;;;;;;;38.97;11.76;100462.28;5426202;32;35936;-68
2022/07/22 08:32:14;;;;;;;;;;;;;;;39.27;11.56;100460.09;5415185;32;36143;-73
2022/07/22 08:35:18;;;;;;;;;;;;;;;41.85;9.50;100454.72;5431982;32;34364;-73
2022/07/22 08:38:21;;;;;;;;;;;;;;;41.45;9.67;100454.37;5401393;32;34824;-71
2022/07/22 08:41:23;;;;;;;;;;;;;;;39.39;10.58;100451.78;5444782;32;35115;-82
2022/07/22 08:44:28;;;;;;;;;;;;;;;42.36;8.82;100444.00;5419319;32;35282;-78
2022/07/22 08:47:30;;;;;;;;;;;;;;;40.53;10.25;100450.59;5421570;32;34667;-73
2022/07/22 08:50:42;;;;;;;;;;;;;;;42.03;9.01;100439.66;5433129;32;44637;-69
2022/07/22 08:53:44;;;;;;;;;;;;;;;42.50;8.58;100449.03;5415591;32;36696;-73
2022/07/22 08:56:47;;;;;;;;;;;;;;;42.30;8.73;100447.00;5437326;32;35595;-74
2022/07/22 08:59:52;;;;;;;;;;;;;;;42.72;8.38;100452.47;5402237;32;34276;-71
2022/07/22 09:02:54;;;;;;;;;;;;;;;39.30;11.09;100456.03;5417089;32;35601;-83
2022/07/22 09:05:56;;;;;;;;;;;;;;;40.29;10.44;100445.28;5408143;32;34327;-81
2022/07/22 09:08:59;;;;;;;;;;;;;;;40.57;10.15;100436.03;5402412;32;35814;-74
2022/07/22 09:12:07;;;;;;;;;;;;;;;42.44;8.83;100443.47;5429134;32;34712;-78
2022/07/22 09:15:09;;;;;;;;;;;;;;;40.14;10.35;100447.84;5433492;32;46034;-76
2022/07/22 09:18:11;;;;;;;;;;;;;;;40.16;10.78;100445.66;5426820;32;34241;-80
2022/07/22 09:21:14;;;;;;;;;;;;;;;39.93;10.89;100435.62;5423998;32;34754;-77
2022/07/22 09:24:29;;;;;;;;;;;;;;;42.11;9.68;100432.78;5405987;32;34212;-70
2022/07/22 09:27:31;;;;;;;;;;;;;;;42.86;9.20;100425.16;5429742;32;34478;-73
2022/07/22 09:30:40;;;;;;;;;;;;;;;43.07;9.05;100431.59;5418755;32;35300;-72
2022/07/22 09:33:46;;;;;;;;;;;;;;;40.88;10.75;100439.97;5434596;32;46162;-73
2022/07/22 09:36:53;;;;;;;;;;;;;;;41.27;10.27;100437.06;5417156;32;34360;-74
2022/07/22 09:39:58;;;;;;;;;;;;;;;42.54;9.56;100434.41;5432028;32;34308;-67
2022/07/22 09:43:01;;;;;;;;;;;;;;;43.13;9.21;100428.53;5408944;32;34223;-69
2022/07/22 09:46:04;;;;;;;;;;;;;;;42.96;9.25;100420.50;5410706;32;34237;-71
2022/07/22 09:49:06;;;;;;;;;;;;;;;43.71;8.89;100420.81;5415749;32;44395;-76
2022/07/22 09:52:08;;;;;;;;;;;;;;;43.83;8.78;100422.50;5423779;32;34327;-66
2022/07/22 09:55:11;;;;;;;;;;;;;;;45.61;7.63;100418.84;5437428;32;34265;-72
2022/07/22 09:58:13;;;;;;;;;;;;;;;43.47;9.04;100423.31;5394276;32;35573;-68
2022/07/22 10:01:15;;;;;;;;;;;;;;;43.83;8.70;100409.50;5417606;32;35254;-71
2022/07/22 10:04:18;;;;;;;;;;;;;;;41.82;10.26;100421.31;5405811;32;35520;-72
2022/07/22 10:07:20;;;;;;;;;;;;;;;43.71;9.05;100406.16;5425854;32;33514;-74
2022/07/22 10:10:23;;;;;;;;;;;;;;;45.42;8.20;100399.31;5435269;32;35569;-73
2022/07/22 10:13:25;;;;;;;;;;;;;;;44.02;8.87;100406.97;5417813;32;34278;-73
2022/07/22 10:16:27;;;;;;;;;;;;;;;42.51;9.99;100407.34;5413275;32;34741;-70
2022/07/22 10:19:28;;;;;;;;;;;;;;;42.64;10.03;100400.53;5408513;32;34229;-75
2022/07/22 10:22:41;;;;;;;;;;;;;;;44.65;8.92;100395.41;5415664;32;34414;-72
2022/07/22 10:25:49;;;;;;;;;;;;;;;45.52;8.27;100392.81;5430536;32;46778;-73
2022/07/22 10:28:51;;;;;;;;;;;;;;;43.85;9.47;100387.88;5421508;32;35298;-74
2022/07/22 10:32:12;;;;;;;;;;;;;;;44.00;9.31;100385.09;5416591;32;34296;-76
2022/07/22 10:35:21;;;;;;;;;;;;;;;44.53;9.04;100379.06;5418016;32;44485;-74
2022/07/22 10:38:23;;;;;;;;;;;;;;;45.41;8.49;100381.03;5420002;32;34839;-75
2022/07/22 10:41:41;;;;;;;;;;;;;;;47.28;7.58;100378.09;5402880;32;34411;-75
2022/07/22 10:44:51;;;;;;;;;;;;;;;45.76;8.61;100381.81;5405983;32;34864;-71
2022/07/22 10:47:59;;;;;;;;;;;;;;;44.32;9.42;100364.50;5432332;32;35125;-74
2022/07/22 10:51:15;;;;;;;;;;;;;;;46.10;8.28;100359.44;5404435;32;34078;-72
2022/07/22 10:54:17;;;;;;;;;;;;;;;45.80;8.51;100363.44;5434898;32;34960;-70
2022/07/22 10:57:38;;;;;;;;;;;;;;;46.27;8.45;100351.50;5419497;32;45833;-75
2022/07/22 11:00:40;;;;;;;;;;;;;;;47.67;7.71;100364.62;5380191;32;35653;-74
2022/07/22 11:03:43;;;;;;;;;;;;;;;46.50;8.39;100358.13;5434721;32;35413;-74
2022/07/22 11:06:46;;;;;;;;;;;;;;;47.44;7.95;100354.44;5415725;32;36366;-75
2022/07/22 11:09:48;;;;;;;;;;;;;;;49.05;7.00;100354.09;5421089;32;35279;-70
2022/07/22 11:12:51;;;;;;;;;;;;;;;49.03;6.96;100341.59;5428394;32;34617;-71
2022/07/22 11:15:53;;;;;;;;;;;;;;;48.54;7.41;100341.34;5435882;32;34807;-71
2022/07/22 11:18:56;;;;;;;;;;;;;;;48.85;7.35;100332.28;5436176;32;35043;-74
2022/07/22 11:22:03;;;;;;;;;;;;;;;48.74;7.50;100340.06;5418989;32;34808;-73
2022/07/22 11:25:07;;;;;;;;;;;;;;;48.30;7.94;100336.00;5438608;32;44441;-72
2022/07/22 11:28:09;;;;;;;;;;;;;;;48.13;7.98;100332.25;5422757;32;35370;-71
2022/07/22 11:31:15;;;;;;;;;;;;;;;45.08;10.02;100332.72;5416562;32;34273;-72
2022/07/22 11:34:17;;;;;;;;;;;;;;;48.85;7.54;100325.88;5413720;32;34727;-73
2022/07/22 11:37:22;;;;;;;;;;;;;;;49.41;7.31;100314.13;5425094;32;34702;-70
2022/07/22 11:40:31;;;;;;;;;;;;;;;48.07;8.19;100316.78;5437440;32;34376;-71
2022/07/22 11:43:43;;;;;;;;;;;;;;;45.88;9.95;100321.97;5430352;32;34894;-71
2022/07/22 11:46:45;;;;;;;;;;;;;;;47.92;8.38;100306.72;5418913;32;34356;-71
2022/07/22 11:49:48;;;;;;;;;;;;;;;45.73;10.06;100299.94;5415416;32;35615;-71
2022/07/22 11:52:53;;;;;;;;;;;;;;;46.97;9.00;100306.28;5440783;32;34710;-70
2022/07/22 11:55:58;;;;;;;;;;;;;;;48.82;7.65;100296.62;5438867;32;35408;-72
2022/07/22 11:59:04;;;;;;;;;;;;;;;46.80;9.15;100294.87;5409134;32;34957;-71
2022/07/22 12:02:07;;;;;;;;;;;;;;;46.86;9.12;100291.72;5440244;32;44893;-75
2022/07/22 12:05:09;;;;;;;;;;;;;;;48.98;7.77;100291.50;5408648;32;33948;-73
2022/07/22 12:08:31;;;;;;;;;;;;;;;47.36;9.03;100285.59;5436199;32;34940;-71
2022/07/22 12:11:34;;;;;;;;;;;;;;;49.74;7.44;100269.94;5421782;32;35406;-71
2022/07/22 12:14:36;;;;;;;;;;;;;;;47.81;8.66;100275.50;5400387;32;44942;-70
2022/07/22 12:17:38;;;;;;;;;;;;;;;50.05;7.27;100269.00;5419408;32;35870;-71
2022/07/22 12:20:44;;;;;;;;;;;;;;;47.93;8.51;100258.28;5403145;32;36933;-73
2022/07/22 12:24:04;;;;;;;;;;;;;;;49.44;7.62;100259.62;5410920;32;34400;-74
2022/07/22 12:27:06;;;;;;;;;;;;;;;46.54;9.57;100263.87;5413701;32;43326;-72
2022/07/22 12:30:12;;;;;;;;;;;;;;;43.61;11.80;100265.06;5420896;32;35929;-72
2022/07/22 12:33:15;;;;;;;;;;;;;;;44.42;11.11;100258.34;5432646;32;36279;-72
2022/07/22 12:36:17;;;;;;;;;;;;;;;44.61;10.92;100248.25;5399036;32;34720;-71
2022/07/22 12:39:19;;;;;;;;;;;;;;;42.20;12.91;100251.78;5412272;32;35025;-70
2022/07/22 12:42:21;;;;;;;;;;;;;;;42.63;12.53;100244.94;5402381;32;34872;-69
2022/07/22 12:45:23;;;;;;;;;;;;;;;41.56;13.59;100246.50;5434824;32;34813;-72
2022/07/22 12:48:27;;;;;;;;;;;;;;;39.71;15.29;100253.22;5432016;32;34966;-71
2022/07/22 12:51:29;;;;;;;;;;;;;;;40.48;14.32;100236.53;5415530;32;35710;-72
2022/07/22 12:54:31;;;;;;;;;;;;;;;39.84;15.13;100243.75;5433647;32;34259;-72
2022/07/22 12:57:33;;;;;;;;;;;;;;;39.70;15.24;100224.06;5403440;32;35809;-71
2022/07/22 13:00:36;;;;;;;;;;;;;;;40.43;14.46;100221.84;5401890;32;35192;-71
2022/07/22 13:03:38;;;;;;;;;;;;;;;40.51;14.40;100224.16;5413626;32;45167;-72
2022/07/22 13:06:42;;;;;;;;;;;;;;;40.00;15.22;100226.34;5428040;32;37462;-70
2022/07/22 13:09:44;;;;;;;;;;;;;;;40.02;15.25;100227.75;5432452;32;35296;-72
2022/07/22 13:12:46;;;;;;;;;;;;;;;39.51;15.51;100218.00;5435421;32;34821;-71
2022/07/22 13:15:49;;;;;;;;;;;;;;;39.98;14.99;100223.84;5438408;32;34688;-70
2022/07/22 13:18:51;;;;;;;;;;;;;;;39.64;15.52;100208.56;5414503;32;35803;-71
2022/07/22 13:21:53;;;;;;;;;;;;;;;40.30;14.50;100218.44;5431751;32;35021;-70
2022/07/22 13:24:55;;;;;;;;;;;;;;;40.52;14.00;100215.66;5423852;32;34253;-72
2022/07/22 13:27:56;;;;;;;;;;;;;;;40.59;13.77;100212.69;5432106;32;34961;-72
2022/07/22 13:30:58;;;;;;;;;;;;;;;39.89;14.55;100214.38;5421624;32;35842;-70
2022/07/22 13:34:01;;;;;;;;;;;;;;;38.98;15.67;100213.91;5415816;32;34343;-72
2022/07/22 13:37:03;;;;;;;;;;;;;;;39.29;15.54;100201.50;5424453;32;34715;-72
2022/07/22 13:40:05;;;;;;;;;;;;;;;39.54;15.50;100206.47;5402648;32;35349;-70
2022/07/22 13:43:07;;;;;;;;;;;;;;;40.29;15.03;100197.50;5417156;32;44945;-73
2022/07/22 13:46:15;;;;;;;;;;;;;;;40.03;14.60;100206.56;5430062;32;34783;-71
2022/07/22 13:49:18;;;;;;;;;;;;;;;39.90;14.85;100190.47;5429360;32;34677;-70
2022/07/22 13:52:19;;;;;;;;;;;;;;;39.94;15.27;100191.62;5404199;32;35733;-73
2022/07/22 13:55:21;;;;;;;;;;;;;;;39.63;15.66;100196.75;5423900;32;35170;-73
2022/07/22 13:58:23;;;;;;;;;;;;;;;38.97;16.23;100179.28;5432966;32;34908;-70
2022/07/22 14:01:25;;;;;;;;;;;;;;;38.54;16.85;100189.00;5415585;32;37707;-70
2022/07/22 14:04:27;;;;;;;;;;;;;;;39.34;14.88;100186.97;5440357;32;34798;-71
2022/07/22 14:07:29;;;;;;;;;;;;;;;38.86;15.81;100186.53;5394763;32;34829;-72
2022/07/22 14:10:31;;;;;;;;;;;;;;;39.53;15.56;100186.41;5414529;32;34668;-72
2022/07/22 14:13:33;;;;;;;;;;;;;;;39.30;15.79;100174.84;5414087;32;34265;-75
2022/07/22 14:16:40;;;;;;;;;;;;;;;39.99;15.18;100183.37;5429846;32;46832;-71
2022/07/22 14:19:59;;;;;;;;;;;;;;;38.71;16.75;100178.06;5439487;32;34813;-71
2022/07/22 14:23:04;;;;;;;;;;;;;;;38.74;16.44;100178.38;5393987;32;34152;-71
2022/07/22 14:26:06;;;;;;;;;;;;;;;38.49;16.61;100169.69;5440795;32;46920;-72
2022/07/22 14:29:08;;;;;;;;;;;;;;;39.23;15.49;100167.59;5426415;32;36615;-70
2022/07/22 14:32:10;;;;;;;;;;;;;;;40.14;14.68;100169.00;5427081;32;35924;-70
2022/07/22 14:35:12;;;;;;;;;;;;;;;39.49;15.15;100162.44;5422721;32;34911;-75
2022/07/22 14:38:13;;;;;;;;;;;;;;;39.68;15.03;100150.06;5416771;32;34317;-72
2022/07/22 14:41:16;;;;;;;;;;;;;;;40.42;14.18;100159.63;5422287;32;34871;-72
2022/07/22 14:44:18;;;;;;;;;;;;;;;40.33;14.14;100151.84;5412808;32;34891;-72
2022/07/22 14:47:19;;;;;;;;;;;;;;;39.99;14.55;100156.69;5430001;32;35313;-70
2022/07/22 14:50:22;;;;;;;;;;;;;;;40.29;14.36;100156.22;5426965;32;35365;-72
2022/07/22 14:53:23;;;;;;;;;;;;;;;39.93;14.66;100152.22;5412983;32;35023;-71
2022/07/22 14:56:26;;;;;;;;;;;;;;;39.33;15.17;100146.81;5421285;32;35087;-73
2022/07/22 14:59:28;;;;;;;;;;;;;;;38.73;15.87;100159.41;5403407;32;34323;-71
2022/07/22 15:02:30;;;;;;;;;;;;;;;38.95;15.75;100152.03;5428103;32;34889;-71
2022/07/22 15:05:32;;;;;;;;;;;;;;;39.48;15.30;100144.25;5423297;32;34542;-74
2022/07/22 15:08:35;;;;;;;;;;;;;;;39.65;15.16;100147.81;5419442;32;35359;-74
2022/07/22 15:11:37;;;;;;;;;;;;;;;39.96;14.74;100146.22;5421970;32;44606;-71
2022/07/22 15:14:39;;;;;;;;;;;;;;;39.88;14.81;100146.69;5428381;32;36221;-72
2022/07/22 15:17:41;;;;;;;;;;;;;;;39.20;15.40;100148.84;5448316;32;34728;-70
2022/07/22 15:20:42;;;;;;;;;;;;;;;39.27;15.30;100146.75;5422585;32;35602;-72
2022/07/22 15:23:45;;;;;;;;;;;;;;;39.05;15.35;100151.38;5430889;32;36547;-72
2022/07/22 15:26:47;;;;;;;;;;;;;;;39.41;14.90;100143.62;5427873;32;34972;-72
2022/07/22 15:29:50;;;;;;;;;;;;;;;38.88;15.42;100145.06;5442326;32;34501;-73
2022/07/22 15:32:52;;;;;;;;;;;;;;;38.95;15.50;100140.22;5434845;32;35235;-74
2022/07/22 15:35:54;;;;;;;;;;;;;;;38.85;15.47;100137.34;5426113;32;35206;-72
2022/07/22 15:38:56;;;;;;;;;;;;;;;39.56;14.89;100135.59;5427813;32;34952;-72
2022/07/22 15:42:01;;;;;;;;;;;;;;;38.77;15.80;100113.84;5401331;32;36767;-70